sensor_id;sensor_type;location;lat;lon;timestamp;pressure;altitude;pressure_sealevel;temperature;humidity
23899;BME280;20544;50.018;20.010;2023-02-20T00:00:00;99351.80;;;1.89;100.00
23899;BME280;20544;50.018;20.010;2023-02-20T00:03:17;99347.30;;;1.91;100.00
23899;BME280;20544;50.018;20.010;2023-02-20T00:06:33;99341.22;;;1.90;100.00
23899;BME280;20544;50.018;20.010;2023-02-20T00:09:50;99338.61;;;1.90;100.00
23899;BME280;20544;50.018;20.010;2023-02-20T00:13:08;99336.92;;;1.89;100.00
23899;BME280;20544;50.018;20.010;2023-02-20T00:16:24;99343.02;;;1.90;100.00
23899;BME280;20544;50.018;20.010;2023-02-20T00:19:41;99340.89;;;1.95;100.00
23899;BME280;20544;50.018;20.010;2023-02-20T00:22:57;99338.72;;;1.89;100.00
23899;BME280;20544;50.018;20.010;2023-02-20T00:26:15;99343.75;;;1.92;100.00
23899;BME280;20544;50.018;20.010;2023-02-20T00:29:31;99340.06;;;1.94;100.00
23899;BME280;20544;50.018;20.010;2023-02-20T00:32:48;99338.61;;;1.90;100.00
23899;BME280;20544;50.018;20.010;2023-02-20T00:36:12;99338.61;;;1.90;100.00
23899;BME280;20544;50.018;20.010;2023-02-20T00:39:29;99340.89;;;1.95;100.00
23899;BME280;20544;50.018;20.010;2023-02-20T00:42:46;99346.13;;;1.95;100.00
23899;BME280;20544;50.018;20.010;2023-02-20T00:46:02;99335.20;;;2.01;100.00
23899;BME280;20544;50.018;20.010;2023-02-20T00:49:19;99339.95;;;1.96;100.00
23899;BME280;20544;50.018;20.010;2023-02-20T00:52:37;99331.24;;;1.96;100.00
23899;BME280;20544;50.018;20.010;2023-02-20T00:55:53;99326.58;;;1.88;100.00
23899;BME280;20544;50.018;20.010;2023-02-20T00:59:09;99323.06;;;2.00;100.00
23899;BME280;20544;50.018;20.010;2023-02-20T01:02:27;99321.14;;;1.91;100.00
23899;BME280;20544;50.018;20.010;2023-02-20T01:05:43;99317.34;;;1.95;100.00
23899;BME280;20544;50.018;20.010;2023-02-20T01:08:59;99320.69;;;1.97;100.00
23899;BME280;20544;50.018;20.010;2023-02-20T01:12:16;99313.45;;;2.01;100.00
23899;BME280;20544;50.018;20.010;2023-02-20T01:15:32;99309.77;;;2.03;100.00
23899;BME280;20544;50.018;20.010;2023-02-20T01:18:51;99324.73;;;2.01;100.00
23899;BME280;20544;50.018;20.010;2023-02-20T01:22:07;99327.59;;;1.98;100.00
23899;BME280;20544;50.018;20.010;2023-02-20T01:25:24;99328.87;;;1.92;100.00
23899;BME280;20544;50.018;20.010;2023-02-20T01:28:40;99331.77;;;2.01;100.00
23899;BME280;20544;50.018;20.010;2023-02-20T01:31:58;99336.19;;;2.12;100.00
23899;BME280;20544;50.018;20.010;2023-02-20T01:35:15;99329.06;;;2.14;100.00
23899;BME280;20544;50.018;20.010;2023-02-20T01:38:32;99334.91;;;2.17;100.00
23899;BME280;20544;50.018;20.010;2023-02-20T01:41:51;99319.41;;;2.14;100.00
23899;BME280;20544;50.018;20.010;2023-02-20T01:45:28;99320.02;;;2.18;100.00
23899;BME280;20544;50.018;20.010;2023-02-20T01:48:47;99325.38;;;2.16;100.00
23899;BME280;20544;50.018;20.010;2023-02-20T01:52:09;99312.90;;;2.20;100.00
23899;BME280;20544;50.018;20.010;2023-02-20T01:55:30;99319.66;;;2.11;100.00
23899;BME280;20544;50.018;20.010;2023-02-20T01:58:51;99315.48;;;2.08;100.00
23899;BME280;20544;50.018;20.010;2023-02-20T02:02:08;99308.34;;;2.10;100.00
23899;BME280;20544;50.018;20.010;2023-02-20T02:05:25;99303.62;;;2.16;100.00
23899;BME280;20544;50.018;20.010;2023-02-20T02:08:45;99299.94;;;2.18;100.00
23899;BME280;20544;50.018;20.010;2023-02-20T02:12:01;99293.61;;;2.09;100.00
23899;BME280;20544;50.018;20.010;2023-02-20T02:15:20;99286.83;;;2.07;100.00
23899;BME280;20544;50.018;20.010;2023-02-20T02:18:41;99284.30;;;2.05;100.00
23899;BME280;20544;50.018;20.010;2023-02-20T02:26:03;99275.05;;;2.13;100.00
23899;BME280;20544;50.018;20.010;2023-02-20T02:29:44;99287.91;;;2.16;100.00
23899;BME280;20544;50.018;20.010;2023-02-20T02:33:45;99287.06;;;2.15;100.00
23899;BME280;20544;50.018;20.010;2023-02-20T02:37:22;99289.56;;;2.17;100.00
23899;BME280;20544;50.018;20.010;2023-02-20T02:40:44;99288.86;;;2.15;100.00
23899;BME280;20544;50.018;20.010;2023-02-20T02:44:08;99275.65;;;2.16;100.00
23899;BME280;20544;50.018;20.010;2023-02-20T02:47:29;99277.45;;;2.16;100.00
23899;BME280;20544;50.018;20.010;2023-02-20T02:50:48;99256.59;;;2.14;100.00
23899;BME280;20544;50.018;20.010;2023-02-20T02:54:08;99262.92;;;2.23;100.00
23899;BME280;20544;50.018;20.010;2023-02-20T02:57:28;99276.86;;;2.23;100.00
23899;BME280;20544;50.018;20.010;2023-02-20T03:00:47;99282.89;;;2.13;100.00
23899;BME280;20544;50.018;20.010;2023-02-20T03:04:08;99283.04;;;2.22;100.00
23899;BME280;20544;50.018;20.010;2023-02-20T03:07:28;99281.03;;;2.26;100.00
23899;BME280;20544;50.018;20.010;2023-02-20T03:10:46;99268.88;;;2.25;100.00
23899;BME280;20544;50.018;20.010;2023-02-20T03:14:06;99260.91;;;2.26;100.00
23899;BME280;20544;50.018;20.010;2023-02-20T03:17:44;99242.81;;;2.12;100.00
23899;BME280;20544;50.018;20.010;2023-02-20T03:21:04;99223.55;;;2.13;100.00
23899;BME280;20544;50.018;20.010;2023-02-20T03:24:23;99213.78;;;2.15;100.00
23899;BME280;20544;50.018;20.010;2023-02-20T03:27:47;99211.88;;;2.06;100.00
23899;BME280;20544;50.018;20.010;2023-02-20T03:31:07;99220.55;;;2.06;100.00
23899;BME280;20544;50.018;20.010;2023-02-20T03:34:27;99223.89;;;2.08;100.00
23899;BME280;20544;50.018;20.010;2023-02-20T03:37:59;99228.06;;;2.11;100.00
23899;BME280;20544;50.018;20.010;2023-02-20T03:41:33;99223.55;;;2.13;100.00
23899;BME280;20544;50.018;20.010;2023-02-20T03:45:05;99219.35;;;2.10;100.00
23899;BME280;20544;50.018;20.010;2023-02-20T03:48:27;99223.77;;;2.10;100.00
23899;BME280;20544;50.018;20.010;2023-02-20T03:51:47;99233.29;;;2.11;100.00
23899;BME280;20544;50.018;20.010;2023-02-20T03:55:05;99217.93;;;2.06;100.00
23899;BME280;20544;50.018;20.010;2023-02-20T03:58:24;99220.67;;;2.05;100.00
23899;BME280;20544;50.018;20.010;2023-02-20T04:01:43;99212.94;;;2.03;100.00
23899;BME280;20544;50.018;20.010;2023-02-20T04:05:04;99218.27;;;2.02;100.00
23899;BME280;20544;50.018;20.010;2023-02-20T04:08:26;99220.31;;;1.98;100.00
23899;BME280;20544;50.018;20.010;2023-02-20T04:11:46;99225.55;;;1.98;100.00
23899;BME280;20544;50.018;20.010;2023-02-20T04:15:06;99221.14;;;1.99;100.00
23899;BME280;20544;50.018;20.010;2023-02-20T04:18:22;99220.78;;;1.92;100.00
23899;BME280;20544;50.018;20.010;2023-02-20T04:21:42;99227.77;;;1.91;100.00
23899;BME280;20544;50.018;20.010;2023-02-20T04:25:02;99218.38;;;1.89;100.00
23899;BME280;20544;50.018;20.010;2023-02-20T04:28:21;99213.50;;;1.96;100.00
23899;BME280;20544;50.018;20.010;2023-02-20T04:31:40;99210.06;;;1.95;100.00
23899;BME280;20544;50.018;20.010;2023-02-20T04:34:56;99213.97;;;1.89;100.00
23899;BME280;20544;50.018;20.010;2023-02-20T04:38:13;99212.80;;;1.93;100.00
23899;BME280;20544;50.018;20.010;2023-02-20T04:41:30;99204.47;;;1.88;100.00
23899;BME280;20544;50.018;20.010;2023-02-20T04:44:46;99196.50;;;1.90;100.00
23899;BME280;20544;50.018;20.010;2023-02-20T04:48:03;99187.92;;;1.88;100.00
23899;BME280;20544;50.018;20.010;2023-02-20T04:51:20;99183.41;;;1.78;100.00
23899;BME280;20544;50.018;20.010;2023-02-20T04:54:37;99178.30;;;1.77;100.00
23899;BME280;20544;50.018;20.010;2023-02-20T04:57:54;99180.30;;;1.73;100.00
23899;BME280;20544;50.018;20.010;2023-02-20T05:01:12;99187.91;;;1.76;100.00
23899;BME280;20544;50.018;20.010;2023-02-20T05:04:28;99188.97;;;1.74;100.00
23899;BME280;20544;50.018;20.010;2023-02-20T05:07:44;99181.94;;;1.74;100.00
23899;BME280;20544;50.018;20.010;2023-02-20T05:11:01;99188.61;;;1.67;100.00
23899;BME280;20544;50.018;20.010;2023-02-20T05:14:17;99178.84;;;1.69;100.00
23899;BME280;20544;50.018;20.010;2023-02-20T05:17:33;99176.14;;;1.71;100.00
23899;BME280;20544;50.018;20.010;2023-02-20T05:20:50;99181.92;;;1.63;100.00
23899;BME280;20544;50.018;20.010;2023-02-20T05:24:28;99166.95;;;1.65;100.00
23899;BME280;20544;50.018;20.010;2023-02-20T05:27:45;99161.84;;;1.64;100.00
23899;BME280;20544;50.018;20.010;2023-02-20T05:31:01;99159.93;;;1.66;100.00
23899;BME280;20544;50.018;20.010;2023-02-20T05:34:17;99152.45;;;1.61;100.00
23899;BME280;20544;50.018;20.010;2023-02-20T05:37:34;99163.86;;;1.60;100.00
23899;BME280;20544;50.018;20.010;2023-02-20T05:40:51;99170.27;;;1.56;100.00
23899;BME280;20544;50.018;20.010;2023-02-20T05:44:08;99173.83;;;1.55;100.00
23899;BME280;20544;50.018;20.010;2023-02-20T05:47:24;99172.28;;;1.52;100.00
23899;BME280;20544;50.018;20.010;2023-02-20T05:50:41;99170.00;;;1.48;100.00
23899;BME280;20544;50.018;20.010;2023-02-20T05:53:58;99173.34;;;1.50;100.00
23899;BME280;20544;50.018;20.010;2023-02-20T05:57:14;99177.84;;;1.48;100.00
23899;BME280;20544;50.018;20.010;2023-02-20T06:00:30;99179.73;;;1.45;100.00
23899;BME280;20544;50.018;20.010;2023-02-20T06:03:47;99181.28;;;1.48;100.00
23899;BME280;20544;50.018;20.010;2023-02-20T06:07:03;99174.53;;;1.57;100.00
23899;BME280;20544;50.018;20.010;2023-02-20T06:10:21;99184.80;;;1.71;100.00
23899;BME280;20544;50.018;20.010;2023-02-20T06:13:37;99182.67;;;1.76;100.00
23899;BME280;20544;50.018;20.010;2023-02-20T06:16:55;99175.32;;;1.93;100.00
23899;BME280;20544;50.018;20.010;2023-02-20T06:20:12;99189.27;;;2.05;100.00
23899;BME280;20544;50.018;20.010;2023-02-20T06:23:28;99180.70;;;2.14;100.00
23899;BME280;20544;50.018;20.010;2023-02-20T06:26:45;99179.41;;;2.20;100.00
23899;BME280;20544;50.018;20.010;2023-02-20T06:30:01;99181.30;;;2.18;100.00
23899;BME280;20544;50.018;20.010;2023-02-20T06:33:18;99178.20;;;2.13;100.00
23899;BME280;20544;50.018;20.010;2023-02-20T06:36:37;99180.82;;;2.13;100.00
23899;BME280;20544;50.018;20.010;2023-02-20T06:39:54;99184.17;;;2.15;100.00
23899;BME280;20544;50.018;20.010;2023-02-20T06:43:10;99188.55;;;2.14;100.00
23899;BME280;20544;50.018;20.010;2023-02-20T06:46:27;99183.91;;;2.18;100.00
23899;BME280;20544;50.018;20.010;2023-02-20T06:49:43;99182.63;;;2.23;100.00
23899;BME280;20544;50.018;20.010;2023-02-20T06:52:59;99186.53;;;2.29;100.00
23899;BME280;20544;50.018;20.010;2023-02-20T06:56:18;99185.59;;;2.30;100.00
23899;BME280;20544;50.018;20.010;2023-02-20T06:59:35;99176.53;;;2.34;100.00
23899;BME280;20544;50.018;20.010;2023-02-20T07:02:54;99168.92;;;2.42;100.00
23899;BME280;20544;50.018;20.010;2023-02-20T07:06:12;99171.06;;;2.49;100.00
23899;BME280;20544;50.018;20.010;2023-02-20T07:09:31;99163.93;;;2.51;100.00
23899;BME280;20544;50.018;20.010;2023-02-20T07:12:49;99158.56;;;2.52;100.00
23899;BME280;20544;50.018;20.010;2023-02-20T07:16:19;99148.70;;;2.45;100.00
23899;BME280;20544;50.018;20.010;2023-02-20T07:19:33;99140.84;;;2.45;100.00
23899;BME280;20544;50.018;20.010;2023-02-20T07:22:53;99121.80;;;2.42;100.00
23899;BME280;20544;50.018;20.010;2023-02-20T07:26:17;99129.52;;;2.44;100.00
23899;BME280;20544;50.018;20.010;2023-02-20T07:29:37;99119.02;;;2.55;100.00
23899;BME280;20544;50.018;20.010;2023-02-20T07:32:56;99128.91;;;2.63;100.00
23899;BME280;20544;50.018;20.010;2023-02-20T07:36:13;99125.41;;;2.74;100.00
23899;BME280;20544;50.018;20.010;2023-02-20T07:39:33;99122.16;;;2.93;100.00
23899;BME280;20544;50.018;20.010;2023-02-20T07:42:50;99131.97;;;3.12;100.00
23899;BME280;20544;50.018;20.010;2023-02-20T07:46:09;99126.94;;;3.20;100.00
23899;BME280;20544;50.018;20.010;2023-02-20T07:49:27;99113.06;;;3.51;100.00
23899;BME280;20544;50.018;20.010;2023-02-20T07:52:44;99116.05;;;3.67;100.00
23899;BME280;20544;50.018;20.010;2023-02-20T07:56:00;99117.92;;;3.77;100.00
23899;BME280;20544;50.018;20.010;2023-02-20T07:59:19;99102.04;;;3.78;100.00
23899;BME280;20544;50.018;20.010;2023-02-20T08:02:37;99091.59;;;3.88;100.00
23899;BME280;20544;50.018;20.010;2023-02-20T08:05:54;99088.16;;;3.97;100.00
23899;BME280;20544;50.018;20.010;2023-02-20T08:09:10;99083.48;;;4.01;100.00
23899;BME280;20544;50.018;20.010;2023-02-20T08:12:26;99085.90;;;4.14;100.00
23899;BME280;20544;50.018;20.010;2023-02-20T08:15:43;99087.00;;;4.21;100.00
23899;BME280;20544;50.018;20.010;2023-02-20T08:19:00;99083.73;;;4.29;100.00
23899;BME280;20544;50.018;20.010;2023-02-20T08:22:20;99086.89;;;4.32;100.00
23899;BME280;20544;50.018;20.010;2023-02-20T08:25:38;99087.77;;;4.43;100.00
23899;BME280;20544;50.018;20.010;2023-02-20T08:29:02;99084.86;;;4.46;100.00
23899;BME280;20544;50.018;20.010;2023-02-20T08:32:19;99090.42;;;4.52;100.00
23899;BME280;20544;50.018;20.010;2023-02-20T08:35:38;99088.76;;;4.51;100.00
23899;BME280;20544;50.018;20.010;2023-02-20T08:38:56;99068.58;;;4.62;100.00
23899;BME280;20544;50.018;20.010;2023-02-20T08:42:15;99065.27;;;4.69;100.00
23899;BME280;20544;50.018;20.010;2023-02-20T08:45:33;99058.89;;;4.72;100.00
23899;BME280;20544;50.018;20.010;2023-02-20T08:48:49;99040.51;;;4.82;100.00
23899;BME280;20544;50.018;20.010;2023-02-20T08:52:07;99035.66;;;4.87;100.00
23899;BME280;20544;50.018;20.010;2023-02-20T08:55:24;99046.88;;;4.99;100.00
23899;BME280;20544;50.018;20.010;2023-02-20T08:58:41;99042.58;;;5.17;100.00
23899;BME280;20544;50.018;20.010;2023-02-20T09:01:57;99030.94;;;5.20;100.00
23899;BME280;20544;50.018;20.010;2023-02-20T09:05:14;99021.22;;;5.30;100.00
23899;BME280;20544;50.018;20.010;2023-02-20T09:08:30;99024.13;;;5.37;100.00
23899;BME280;20544;50.018;20.010;2023-02-20T09:11:47;99026.61;;;5.39;100.00
23899;BME280;20544;50.018;20.010;2023-02-20T09:15:03;99011.59;;;5.59;100.00
23899;BME280;20544;50.018;20.010;2023-02-20T09:18:21;99019.06;;;5.63;100.00
23899;BME280;20544;50.018;20.010;2023-02-20T09:21:37;99002.12;;;5.76;100.00
23899;BME280;20544;50.018;20.010;2023-02-20T09:24:56;98995.85;;;5.77;100.00
23899;BME280;20544;50.018;20.010;2023-02-20T09:28:15;98988.88;;;5.86;100.00
23899;BME280;20544;50.018;20.010;2023-02-20T09:31:31;98982.11;;;5.83;100.00
23899;BME280;20544;50.018;20.010;2023-02-20T09:34:47;98966.57;;;5.90;100.00
23899;BME280;20544;50.018;20.010;2023-02-20T09:38:05;98971.88;;;5.80;100.00
23899;BME280;20544;50.018;20.010;2023-02-20T09:41:28;98977.53;;;5.85;100.00
23899;BME280;20544;50.018;20.010;2023-02-20T09:44:54;98950.67;;;5.81;100.00
23899;BME280;20544;50.018;20.010;2023-02-20T09:48:22;98947.66;;;5.76;100.00
23899;BME280;20544;50.018;20.010;2023-02-20T09:51:43;98935.57;;;5.83;100.00
23899;BME280;20544;50.018;20.010;2023-02-20T09:55:04;98940.09;;;5.91;100.00
23899;BME280;20544;50.018;20.010;2023-02-20T09:58:32;98935.20;;;5.96;100.00
23899;BME280;20544;50.018;20.010;2023-02-20T10:01:55;98941.19;;;5.98;100.00
23899;BME280;20544;50.018;20.010;2023-02-20T10:05:26;98942.55;;;6.03;100.00
23899;BME280;20544;50.018;20.010;2023-02-20T10:08:45;98929.91;;;6.06;100.00
23899;BME280;20544;50.018;20.010;2023-02-20T10:12:12;98933.61;;;6.13;100.00
23899;BME280;20544;50.018;20.010;2023-02-20T10:15:37;98905.45;;;6.14;100.00
23899;BME280;20544;50.018;20.010;2023-02-20T10:19:01;98904.39;;;6.07;100.00
23899;BME280;20544;50.018;20.010;2023-02-20T10:22:27;98908.02;;;6.24;100.00
23899;BME280;20544;50.018;20.010;2023-02-20T10:25:47;98894.03;;;6.23;100.00
23899;BME280;20544;50.018;20.010;2023-02-20T10:29:13;98889.30;;;6.27;100.00
23899;BME280;20544;50.018;20.010;2023-02-20T10:32:51;98885.97;;;6.25;100.00
23899;BME280;20544;50.018;20.010;2023-02-20T10:36:12;98887.16;;;6.30;100.00
23899;BME280;20544;50.018;20.010;2023-02-20T10:39:32;98870.90;;;6.35;100.00
23899;BME280;20544;50.018;20.010;2023-02-20T10:42:57;98865.34;;;6.38;100.00
23899;BME280;20544;50.018;20.010;2023-02-20T10:46:18;98844.79;;;6.42;100.00
23899;BME280;20544;50.018;20.010;2023-02-20T10:49:42;98849.58;;;6.46;100.00
23899;BME280;20544;50.018;20.010;2023-02-20T10:53:06;98837.97;;;6.57;100.00
23899;BME280;20544;50.018;20.010;2023-02-20T10:56:26;98832.08;;;6.63;100.00
23899;BME280;20544;50.018;20.010;2023-02-20T10:59:48;98820.72;;;6.63;100.00
23899;BME280;20544;50.018;20.010;2023-02-20T11:03:14;98800.18;;;6.75;100.00
23899;BME280;20544;50.018;20.010;2023-02-20T11:06:35;98801.84;;;6.76;100.00
23899;BME280;20544;50.018;20.010;2023-02-20T11:09:53;98796.56;;;6.76;100.00
23899;BME280;20544;50.018;20.010;2023-02-20T11:13:15;98787.27;;;6.63;100.00
23899;BME280;20544;50.018;20.010;2023-02-20T11:16:37;98783.69;;;6.73;100.00
23899;BME280;20544;50.018;20.010;2023-02-20T11:19:57;98768.55;;;6.75;100.00
23899;BME280;20544;50.018;20.010;2023-02-20T11:23:34;98765.56;;;6.70;100.00
23899;BME280;20544;50.018;20.010;2023-02-20T11:27:02;98748.09;;;6.69;100.00
23899;BME280;20544;50.018;20.010;2023-02-20T11:30:32;98756.16;;;6.67;100.00
23899;BME280;20544;50.018;20.010;2023-02-20T11:33:50;98741.02;;;6.69;100.00
23899;BME280;20544;50.018;20.010;2023-02-20T11:37:10;98741.65;;;6.63;100.00
23899;BME280;20544;50.018;20.010;2023-02-20T11:40:29;98740.34;;;6.67;100.00
23899;BME280;20544;50.018;20.010;2023-02-20T11:43:46;98731.11;;;6.63;100.00
23899;BME280;20544;50.018;20.010;2023-02-20T11:47:22;98720.92;;;6.68;100.00
23899;BME280;20544;50.018;20.010;2023-02-20T11:50:42;98725.22;;;6.77;100.00
23899;BME280;20544;50.018;20.010;2023-02-20T11:54:12;98712.59;;;6.89;100.00
23899;BME280;20544;50.018;20.010;2023-02-20T11:57:31;98692.48;;;6.96;100.00
23899;BME280;20544;50.018;20.010;2023-02-20T12:00:50;98684.58;;;6.96;100.00
23899;BME280;20544;50.018;20.010;2023-02-20T12:04:17;98681.49;;;7.09;100.00
23899;BME280;20544;50.018;20.010;2023-02-20T12:07:38;98667.23;;;6.77;100.00
23899;BME280;20544;50.018;20.010;2023-02-20T12:10:59;98659.48;;;6.76;100.00
23899;BME280;20544;50.018;20.010;2023-02-20T12:14:19;98650.59;;;6.77;100.00
23899;BME280;20544;50.018;20.010;2023-02-20T12:17:38;98634.27;;;6.73;100.00
23899;BME280;20544;50.018;20.010;2023-02-20T12:21:07;98615.31;;;6.70;100.00
23899;BME280;20544;50.018;20.010;2023-02-20T12:24:44;98595.41;;;6.75;100.00
23899;BME280;20544;50.018;20.010;2023-02-20T12:28:11;98587.50;;;6.84;100.00
23899;BME280;20544;50.018;20.010;2023-02-20T12:31:39;98583.71;;;6.78;100.00
23899;BME280;20544;50.018;20.010;2023-02-20T12:35:09;98598.70;;;6.94;100.00
23899;BME280;20544;50.018;20.010;2023-02-20T12:38:38;98579.41;;;6.85;100.00
23899;BME280;20544;50.018;20.010;2023-02-20T12:42:04;98592.77;;;6.75;100.00
23899;BME280;20544;50.018;20.010;2023-02-20T12:45:28;98593.75;;;6.83;100.00
23899;BME280;20544;50.018;20.010;2023-02-20T12:48:54;98576.28;;;6.82;100.00
23899;BME280;20544;50.018;20.010;2023-02-20T12:56:23;98563.29;;;6.88;100.00
23899;BME280;20544;50.018;20.010;2023-02-20T12:59:52;98552.26;;;6.93;100.00
23899;BME280;20544;50.018;20.010;2023-02-20T13:03:13;98535.42;;;6.94;100.00
23899;BME280;20544;50.018;20.010;2023-02-20T13:06:34;98531.49;;;6.98;100.00
23899;BME280;20544;50.018;20.010;2023-02-20T13:10:03;98496.87;;;7.01;100.00
23899;BME280;20544;50.018;20.010;2023-02-20T13:13:31;98510.55;;;7.05;100.00
23899;BME280;20544;50.018;20.010;2023-02-20T13:16:55;98500.84;;;7.05;100.00
23899;BME280;20544;50.018;20.010;2023-02-20T13:20:20;98508.41;;;7.08;100.00
23899;BME280;20544;50.018;20.010;2023-02-20T13:23:41;98525.39;;;7.06;100.00
23899;BME280;20544;50.018;20.010;2023-02-20T13:27:08;98498.03;;;7.07;100.00
23899;BME280;20544;50.018;20.010;2023-02-20T13:30:29;98507.73;;;7.06;100.00
23899;BME280;20544;50.018;20.010;2023-02-20T13:34:27;98478.59;;;7.08;100.00
23899;BME280;20544;50.018;20.010;2023-02-20T13:37:55;98476.27;;;7.13;100.00
23899;BME280;20544;50.018;20.010;2023-02-20T13:41:18;98482.03;;;7.17;100.00
23899;BME280;20544;50.018;20.010;2023-02-20T13:44:45;98469.48;;;7.27;100.00
23899;BME280;20544;50.018;20.010;2023-02-20T13:48:19;98465.33;;;7.33;100.00
23899;BME280;20544;50.018;20.010;2023-02-20T13:51:42;98460.88;;;7.41;100.00
23899;BME280;20544;50.018;20.010;2023-02-20T13:55:04;98450.47;;;7.48;100.00
23899;BME280;20544;50.018;20.010;2023-02-20T13:58:29;98419.10;;;7.53;100.00
23899;BME280;20544;50.018;20.010;2023-02-20T14:02:02;98392.38;;;7.56;100.00
23899;BME280;20544;50.018;20.010;2023-02-20T14:05:30;98377.18;;;7.58;100.00
23899;BME280;20544;50.018;20.010;2023-02-20T14:08:49;98377.78;;;7.69;100.00
23899;BME280;20544;50.018;20.010;2023-02-20T14:12:26;98377.09;;;7.75;100.00
23899;BME280;20544;50.018;20.010;2023-02-20T14:15:48;98356.14;;;7.73;100.00
23899;BME280;20544;50.018;20.010;2023-02-20T14:19:08;98333.23;;;7.74;100.00
23899;BME280;20544;50.018;20.010;2023-02-20T14:22:31;98313.44;;;7.70;100.00
23899;BME280;20544;50.018;20.010;2023-02-20T14:25:57;98305.36;;;7.71;100.00
23899;BME280;20544;50.018;20.010;2023-02-20T14:29:25;98305.81;;;7.75;100.00
23899;BME280;20544;50.018;20.010;2023-02-20T14:32:50;98314.75;;;7.74;100.00
23899;BME280;20544;50.018;20.010;2023-02-20T14:40:04;98304.75;;;7.61;100.00
23899;BME280;20544;50.018;20.010;2023-02-20T14:43:26;98301.16;;;7.54;100.00
23899;BME280;20544;50.018;20.010;2023-02-20T14:46:46;98284.55;;;7.45;100.00
23899;BME280;20544;50.018;20.010;2023-02-20T14:50:20;98271.06;;;7.40;100.00
23899;BME280;20544;50.018;20.010;2023-02-20T14:53:41;98279.45;;;7.43;100.00
23899;BME280;20544;50.018;20.010;2023-02-20T14:57:01;98254.75;;;7.36;100.00
23899;BME280;20544;50.018;20.010;2023-02-20T15:00:33;98247.02;;;7.35;100.00
23899;BME280;20544;50.018;20.010;2023-02-20T15:04:08;98243.20;;;7.37;100.00
23899;BME280;20544;50.018;20.010;2023-02-20T15:07:28;98238.11;;;7.36;100.00
23899;BME280;20544;50.018;20.010;2023-02-20T15:10:58;98225.91;;;7.35;100.00
23899;BME280;20544;50.018;20.010;2023-02-20T15:14:27;98221.63;;;7.34;100.00
23899;BME280;20544;50.018;20.010;2023-02-20T15:18:03;98208.09;;;7.37;100.00
23899;BME280;20544;50.018;20.010;2023-02-20T15:21:59;98217.48;;;7.39;100.00
23899;BME280;20544;50.018;20.010;2023-02-20T15:25:37;98216.82;;;7.37;100.00
23899;BME280;20544;50.018;20.010;2023-02-20T15:29:17;98221.58;;;7.42;100.00
23899;BME280;20544;50.018;20.010;2023-02-20T15:32:54;98231.33;;;7.41;100.00
23899;BME280;20544;50.018;20.010;2023-02-20T15:36:26;98234.59;;;7.43;100.00
23899;BME280;20544;50.018;20.010;2023-02-20T15:39:44;98235.43;;;7.44;100.00
23899;BME280;20544;50.018;20.010;2023-02-20T15:43:01;98230.48;;;7.41;100.00
23899;BME280;20544;50.018;20.010;2023-02-20T15:46:21;98218.29;;;7.40;100.00
23899;BME280;20544;50.018;20.010;2023-02-20T15:49:38;98216.30;;;7.42;100.00
23899;BME280;20544;50.018;20.010;2023-02-20T15:52:55;98217.95;;;7.43;100.00
23899;BME280;20544;50.018;20.010;2023-02-20T15:56:16;98205.09;;;7.40;100.00
23899;BME280;20544;50.018;20.010;2023-02-20T15:59:33;98195.20;;;7.42;100.00
23899;BME280;20544;50.018;20.010;2023-02-20T16:02:49;98192.74;;;7.40;100.00
23899;BME280;20544;50.018;20.010;2023-02-20T16:06:07;98185.12;;;7.45;100.00
23899;BME280;20544;50.018;20.010;2023-02-20T16:09:24;98181.12;;;7.50;100.00
23899;BME280;20544;50.018;20.010;2023-02-20T16:12:44;98197.89;;;7.57;100.00
23899;BME280;20544;50.018;20.010;2023-02-20T16:16:12;98197.38;;;7.61;100.00
23899;BME280;20544;50.018;20.010;2023-02-20T16:19:30;98209.39;;;7.64;100.00
23899;BME280;20544;50.018;20.010;2023-02-20T16:22:49;98212.13;;;7.71;100.00
23899;BME280;20544;50.018;20.010;2023-02-20T16:26:06;98217.70;;;7.76;100.00
23899;BME280;20544;50.018;20.010;2023-02-20T16:29:27;98222.27;;;7.82;100.00
23899;BME280;20544;50.018;20.010;2023-02-20T16:32:47;98223.02;;;7.91;100.00
23899;BME280;20544;50.018;20.010;2023-02-20T16:36:04;98238.16;;;7.97;100.00
23899;BME280;20544;50.018;20.010;2023-02-20T16:39:23;98242.54;;;8.05;100.00
23899;BME280;20544;50.018;20.010;2023-02-20T16:42:42;98237.38;;;8.12;100.00
23899;BME280;20544;50.018;20.010;2023-02-20T16:46:02;98239.30;;;8.18;100.00
23899;BME280;20544;50.018;20.010;2023-02-20T16:49:19;98231.13;;;8.28;100.00
23899;BME280;20544;50.018;20.010;2023-02-20T16:52:37;98243.62;;;8.34;100.00
23899;BME280;20544;50.018;20.010;2023-02-20T16:55:55;98248.34;;;8.38;100.00
23899;BME280;20544;50.018;20.010;2023-02-20T16:59:11;98243.02;;;8.47;100.00
23899;BME280;20544;50.018;20.010;2023-02-20T17:02:31;98249.41;;;8.52;100.00
23899;BME280;20544;50.018;20.010;2023-02-20T17:05:52;98245.20;;;8.58;100.00
23899;BME280;20544;50.018;20.010;2023-02-20T17:09:13;98236.27;;;8.74;100.00
23899;BME280;20544;50.018;20.010;2023-02-20T17:12:31;98236.92;;;8.76;100.00
23899;BME280;20544;50.018;20.010;2023-02-20T17:15:49;98215.84;;;8.83;100.00
23899;BME280;20544;50.018;20.010;2023-02-20T17:19:07;98217.94;;;8.87;100.00
23899;BME280;20544;50.018;20.010;2023-02-20T17:22:25;98211.91;;;8.94;100.00
23899;BME280;20544;50.018;20.010;2023-02-20T17:25:50;98211.17;;;9.00;100.00
23899;BME280;20544;50.018;20.010;2023-02-20T17:29:09;98206.75;;;9.07;100.00
23899;BME280;20544;50.018;20.010;2023-02-20T17:32:32;98209.69;;;9.12;100.00
23899;BME280;20544;50.018;20.010;2023-02-20T17:35:49;98198.72;;;9.15;100.00
23899;BME280;20544;50.018;20.010;2023-02-20T17:39:06;98205.27;;;9.19;100.00
23899;BME280;20544;50.018;20.010;2023-02-20T17:42:23;98212.71;;;9.31;100.00